Time;durP1;ratioP1;P1;durP2;ratioP2;P2;SDS_P1;SDS_P2;PMS_P1;PMS_P2;Temp;Humidity;BMP_temperature;BMP_pressure;BME280_temperature;BME280_humidity;BME280_pressure;Samples;Min_cycle;Max_cycle;Signal;HPM_P1;HPM_P2
2023/10/17 00:00:55;;;;;;;5.10;2.43;;;3.90;99.90;;;4.77;100.00;98356.78;5020369;28;20466;-80
2023/10/17 00:03:27;;;;;;;3.33;1.73;;;3.70;99.90;;;4.73;100.00;98345.06;5020627;28;20529;-80
2023/10/17 00:05:58;;;;;;;3.93;2.23;;;3.80;99.90;;;4.73;100.00;98348.47;5016593;28;22140;-81
2023/10/17 00:08:32;;;;;;;4.13;1.93;;;3.70;99.90;;;4.69;100.00;98346.31;5017624;28;20489;-80
2023/10/17 00:11:07;;;;;;;4.90;1.80;;;3.70;99.90;;;4.65;100.00;98340.59;5017486;28;20478;-80
2023/10/17 00:13:39;;;;;;;2.60;1.73;;;3.60;99.90;;;4.65;100.00;98337.22;5018524;28;20472;-80
2023/10/17 00:16:11;;;;;;;2.23;1.83;;;3.60;99.90;;;4.65;100.00;98332.03;5019466;28;20458;-80
2023/10/17 00:18:41;;;;;;;3.60;2.20;;;3.70;99.90;;;4.61;100.00;98338.47;5021366;28;20867;-81
2023/10/17 00:21:16;;;;;;;10.60;2.10;;;3.60;99.90;;;4.53;100.00;98329.63;5022695;28;20564;-80
2023/10/17 00:23:50;;;;;;;4.47;1.80;;;3.70;99.90;;;4.56;100.00;98329.34;5025187;28;20476;-80
2023/10/17 00:26:22;;;;;;;3.57;2.00;;;3.60;99.90;;;4.52;100.00;98328.00;5024798;28;20468;-81
2023/10/17 00:28:52;;;;;;;5.57;1.80;;;3.40;99.90;;;4.47;100.00;98335.38;5023492;28;20517;-80
2023/10/17 00:31:23;;;;;;;3.60;1.90;;;3.50;99.90;;;4.48;100.00;98336.16;5024425;28;20474;-80
2023/10/17 00:33:57;;;;;;;2.30;1.93;;;3.50;99.90;;;4.33;100.00;98335.00;5024356;28;20458;-81
2023/10/17 00:36:27;;;;;;;3.33;1.80;;;3.50;99.90;;;4.36;100.00;98325.19;5019449;28;20484;-80
2023/10/17 00:39:07;;;;;;;4.70;1.73;;;3.50;99.90;;;4.35;100.00;98336.50;5016953;28;20489;-80
2023/10/17 00:41:50;;;;;;;3.10;1.70;;;3.40;99.90;;;4.33;100.00;98337.59;5016952;28;20550;-80
2023/10/17 00:44:30;;;;;;;2.53;1.87;;;3.30;99.90;;;4.33;100.00;98333.25;5019140;28;20508;-80
2023/10/17 00:47:02;;;;;;;3.40;2.10;;;3.30;99.90;;;4.35;100.00;98326.13;5018066;28;20626;-80
2023/10/17 00:49:40;;;;;;;4.90;1.80;;;3.40;99.90;;;4.33;100.00;98317.72;5019000;28;20562;-81
2023/10/17 00:52:18;;;;;;;5.40;2.00;;;3.30;99.90;;;4.28;100.00;98319.88;5017261;28;20466;-80
2023/10/17 00:54:50;;;;;;;3.10;2.20;;;3.30;99.90;;;4.19;100.00;98325.09;5019940;28;20558;-80
2023/10/17 00:57:22;;;;;;;3.07;1.57;;;3.30;99.90;;;4.13;100.00;98329.03;5021148;28;21105;-80
2023/10/17 00:59:53;;;;;;;3.77;2.07;;;3.20;99.90;;;4.11;100.00;98322.38;5021111;28;20472;-80
2023/10/17 01:02:24;;;;;;;3.10;2.00;;;3.10;99.90;;;4.12;100.00;98322.25;5019947;28;20462;-80
2023/10/17 01:04:59;;;;;;;6.53;1.70;;;3.30;99.90;;;4.14;100.00;98317.75;5021969;28;20461;-80
2023/10/17 01:07:34;;;;;;;3.70;2.27;;;3.20;99.90;;;4.12;100.00;98316.25;5021255;28;20465;-80
2023/10/17 01:10:10;;;;;;;3.73;1.93;;;3.10;99.90;;;4.11;100.00;98323.19;5020076;28;20460;-80
2023/10/17 01:12:49;;;;;;;2.40;1.80;;;3.10;99.90;;;4.08;100.00;98305.38;5026458;28;20464;-80
2023/10/17 01:15:21;;;;;;;2.47;1.83;;;3.20;99.90;;;4.07;100.00;98303.75;5028449;28;20518;-81
2023/10/17 01:17:54;;;;;;;2.17;1.80;;;3.10;99.90;;;4.03;100.00;98299.78;5025574;28;20494;-81
2023/10/17 01:20:26;;;;;;;8.23;2.37;;;3.10;99.90;;;4.05;100.00;98297.91;5025149;28;20553;-80
2023/10/17 01:22:56;;;;;;;2.20;1.93;;;3.20;99.90;;;3.93;100.00;98299.00;5025193;28;20463;-80
2023/10/17 01:25:28;;;;;;;2.23;1.90;;;3.00;99.90;;;3.95;100.00;98294.53;5021218;28;20917;-80
2023/10/17 01:28:00;;;;;;;4.33;1.83;;;2.90;99.90;;;3.90;100.00;98288.94;5021722;28;20548;-80
2023/10/17 01:30:30;;;;;;;2.20;1.97;;;3.00;99.90;;;3.80;100.00;98293.31;5022314;28;20531;-80
2023/10/17 01:33:00;;;;;;;2.13;1.90;;;3.00;99.90;;;3.80;100.00;98285.56;5022052;28;20466;-80
2023/10/17 01:35:29;;;;;;;5.27;1.90;;;3.00;99.90;;;3.83;100.00;98293.03;5021643;28;20965;-80
2023/10/17 01:37:59;;;;;;;3.87;1.87;;;3.00;99.90;;;3.88;100.00;98294.25;5020419;28;20491;-80
2023/10/17 01:40:31;;;;;;;5.10;1.87;;;3.00;99.90;;;3.90;100.00;98294.94;5021705;28;20454;-81
2023/10/17 01:42:59;;;;;;;3.50;1.90;;;2.90;99.90;;;3.88;100.00;98298.63;5019718;28;20469;-81
2023/10/17 01:45:37;;;;;;;1.60;1.50;;;2.80;99.90;;;3.84;100.00;98307.59;5022994;28;20466;-81
2023/10/17 01:48:10;;;;;;;4.67;2.07;;;2.70;99.90;;;3.83;100.00;98308.53;5019668;28;20545;-80
2023/10/17 01:50:41;;;;;;;3.20;2.00;;;2.80;99.90;;;3.83;100.00;98313.72;5021129;28;20488;-80
2023/10/17 01:53:12;;;;;;;2.37;2.13;;;2.80;99.90;;;3.77;100.00;98311.69;5021134;28;20466;-81
2023/10/17 01:55:48;;;;;;;2.83;1.70;;;2.80;99.90;;;3.83;100.00;98314.53;5019415;28;20874;-80
2023/10/17 01:58:19;;;;;;;3.40;1.90;;;2.80;99.90;;;3.81;100.00;98311.28;5020471;28;20580;-81
2023/10/17 02:00:49;;;;;;;3.87;2.23;;;2.70;99.90;;;3.85;100.00;98306.66;5027389;28;20465;-80
2023/10/17 02:03:19;;;;;;;5.20;1.77;;;2.80;99.90;;;3.80;100.00;98301.06;5028354;28;20458;-81
2023/10/17 02:05:49;;;;;;;2.77;1.90;;;2.80;99.90;;;3.75;100.00;98298.09;5030339;28;20536;-80
2023/10/17 02:08:21;;;;;;;3.83;2.30;;;2.70;99.90;;;3.73;100.00;98297.41;5026208;28;20454;-81
2023/10/17 02:10:52;;;;;;;2.10;1.70;;;2.70;99.90;;;3.69;100.00;98283.09;5027884;28;20970;-80
2023/10/17 02:13:22;;;;;;;2.87;1.90;;;2.80;99.90;;;3.72;100.00;98288.00;5030031;28;20796;-80
2023/10/17 02:15:52;;;;;;;3.33;2.03;;;2.80;99.90;;;3.79;100.00;98281.31;5029341;28;20472;-81
2023/10/17 02:18:23;;;;;;;5.90;2.00;;;2.90;99.90;;;3.78;100.00;98283.13;5029640;28;20493;-80
2023/10/17 02:20:53;;;;;;;6.97;1.87;;;2.80;99.90;;;3.80;100.00;98280.38;5021703;28;20832;-80
2023/10/17 02:23:27;;;;;;;6.60;2.07;;;2.80;99.90;;;3.84;100.00;98295.50;5019258;28;20528;-80
2023/10/17 02:26:00;;;;;;;4.93;2.20;;;2.90;99.90;;;3.81;100.00;98290.59;5019616;28;20523;-80
2023/10/17 02:28:44;;;;;;;2.40;1.90;;;2.90;99.90;;;3.77;100.00;98297.00;5020583;28;20466;-83
2023/10/17 02:31:27;;;;;;;4.17;2.37;;;2.80;99.90;;;3.82;100.00;98292.22;5021133;28;20455;-80
2023/10/17 02:33:58;;;;;;;4.00;1.90;;;2.80;99.90;;;3.82;100.00;98287.03;5020013;28;20484;-81
2023/10/17 02:36:28;;;;;;;4.10;1.90;;;2.80;99.90;;;3.85;100.00;98291.13;5021238;28;20463;-81
2023/10/17 02:38:58;;;;;;;2.60;2.20;;;2.90;99.90;;;3.86;100.00;98282.41;5019920;28;20493;-81
2023/10/17 02:41:30;;;;;;;2.57;1.93;;;2.80;99.90;;;3.87;100.00;98284.88;5019367;28;20476;-81
2023/10/17 02:44:00;;;;;;;2.97;1.63;;;2.80;99.90;;;3.87;100.00;98278.88;5020898;28;20531;-81
2023/10/17 02:46:30;;;;;;;2.80;2.13;;;2.80;99.90;;;3.89;100.00;98274.34;5019530;28;20528;-80
2023/10/17 02:49:06;;;;;;;3.70;1.97;;;2.80;99.90;;;3.84;100.00;98266.22;5017851;28;20471;-80
2023/10/17 02:51:37;;;;;;;4.40;2.20;;;2.80;99.90;;;3.84;100.00;98267.03;5021309;28;20462;-80
2023/10/17 02:54:12;;;;;;;3.20;2.50;;;2.90;99.90;;;3.83;100.00;98259.41;5020528;28;20462;-81
2023/10/17 02:56:51;;;;;;;2.57;1.73;;;2.90;99.90;;;3.87;100.00;98268.53;5021217;28;20490;-80
2023/10/17 02:59:22;;;;;;;2.90;1.80;;;3.00;99.90;;;3.88;100.00;98267.56;5025297;28;20472;-81
2023/10/17 03:01:55;;;;;;;2.37;1.70;;;3.10;99.90;;;3.93;100.00;98262.78;5023442;28;20458;-81
2023/10/17 03:04:24;;;;;;;6.00;2.37;;;3.00;99.90;;;3.89;100.00;98262.25;5019088;28;20542;-81
2023/10/17 03:06:56;;;;;;;4.43;1.93;;;2.90;99.90;;;3.83;100.00;98269.75;5020734;28;20966;-80
2023/10/17 03:12:27;;;;;;;4.43;1.83;;;2.80;99.90;;;3.78;100.00;98272.78;5018307;28;20473;-81
2023/10/17 03:18:02;;;;;;;2.30;1.70;;;3.10;99.90;;;3.85;100.00;98260.09;4995811;28;20539;-80
2023/10/17 03:20:36;;;;;;;4.33;2.00;;;3.00;99.90;;;3.87;100.00;98269.34;5015867;28;20490;-80
2023/10/17 03:23:08;;;;;;;4.63;2.00;;;3.00;99.90;;;3.88;100.00;98262.41;5018757;28;20481;-80
2023/10/17 03:25:39;;;;;;;3.10;1.90;;;3.00;99.90;;;3.92;100.00;98251.63;5018593;28;20466;-80
2023/10/17 03:28:13;;;;;;;5.23;2.40;;;3.00;99.90;;;3.92;100.00;98259.38;5018608;28;20511;-80
2023/10/17 03:30:47;;;;;;;3.60;2.10;;;3.10;99.90;;;3.93;100.00;98257.59;5018737;28;20490;-80
2023/10/17 03:33:26;;;;;;;5.97;2.30;;;3.10;99.90;;;3.92;100.00;98259.38;5021008;28;20461;-80
2023/10/17 03:36:05;;;;;;;4.87;2.50;;;3.10;99.90;;;3.93;100.00;98260.19;5019441;28;20533;-80
2023/10/17 03:38:37;;;;;;;3.37;1.80;;;3.10;99.90;;;3.96;100.00;98270.25;5017391;28;20482;-80
2023/10/17 03:41:15;;;;;;;3.60;2.00;;;3.10;99.90;;;3.97;100.00;98269.31;5023639;28;20461;-80
2023/10/17 03:43:51;;;;;;;5.37;2.77;;;3.10;99.90;;;3.96;100.00;98265.09;5025029;28;21029;-80
2023/10/17 03:46:25;;;;;;;3.60;2.30;;;3.10;99.90;;;3.98;100.00;98265.78;5018530;28;20512;-80
2023/10/17 03:48:58;;;;;;;2.50;2.13;;;3.10;99.90;;;3.96;100.00;98267.66;5019167;28;20853;-80
2023/10/17 03:51:30;;;;;;;5.87;2.67;;;3.20;99.90;;;3.99;100.00;98263.03;5019413;28;20464;-80
2023/10/17 03:54:07;;;;;;;4.30;2.70;;;3.20;99.90;;;3.92;100.00;98261.97;5016813;28;20960;-80
2023/10/17 03:56:45;;;;;;;2.23;1.87;;;3.20;99.90;;;3.94;100.00;98264.44;5016907;28;20457;-80
2023/10/17 03:59:27;;;;;;;3.90;1.90;;;3.10;99.90;;;3.97;100.00;98269.31;5018742;28;20494;-80
2023/10/17 04:02:02;;;;;;;5.30;2.57;;;3.20;99.90;;;3.94;100.00;98269.59;5015464;28;20463;-80
2023/10/17 04:04:45;;;;;;;2.50;2.00;;;3.20;99.90;;;3.95;100.00;98266.88;5019574;28;20517;-80
2023/10/17 04:07:16;;;;;;;3.10;2.37;;;3.00;99.90;;;3.89;100.00;98274.34;5017508;28;20454;-80
2023/10/17 04:09:54;;;;;;;4.60;2.27;;;3.20;99.90;;;3.92;100.00;98281.88;5018792;28;20475;-80
2023/10/17 04:12:37;;;;;;;3.57;2.30;;;3.20;99.90;;;3.91;100.00;98275.88;5018667;28;20466;-79
2023/10/17 04:15:09;;;;;;;2.30;1.93;;;3.20;99.90;;;3.91;100.00;98280.22;5015636;28;20465;-80
2023/10/17 04:17:39;;;;;;;3.23;2.30;;;3.20;99.90;;;3.93;100.00;98281.72;5018419;28;20461;-80
2023/10/17 04:20:12;;;;;;;3.90;2.37;;;3.10;99.90;;;3.92;100.00;98274.09;5016880;28;21213;-80
2023/10/17 04:22:44;;;;;;;5.07;2.50;;;3.10;99.90;;;3.95;100.00;98271.25;5026143;28;20494;-78
2023/10/17 04:25:33;;;;;;;2.43;2.03;;;3.10;99.90;;;4.00;100.00;98275.03;5023260;28;20499;-80
2023/10/17 04:28:02;;;;;;;3.20;2.27;;;3.10;99.90;;;4.01;100.00;98275.84;5021827;28;20965;-80
2023/10/17 04:30:38;;;;;;;4.07;2.20;;;3.10;99.90;;;4.00;100.00;98287.13;5022757;28;20866;-80
2023/10/17 04:33:12;;;;;;;3.30;2.10;;;3.10;99.90;;;3.98;100.00;98287.28;5024380;28;20510;-79
2023/10/17 04:35:46;;;;;;;3.10;2.13;;;3.20;99.90;;;4.00;100.00;98282.78;5025308;28;20522;-80
2023/10/17 04:38:19;;;;;;;3.53;2.20;;;3.20;99.90;;;4.00;100.00;98287.97;5023318;28;20504;-80
2023/10/17 04:41:11;;;;;;;3.73;2.40;;;3.10;99.90;;;4.01;100.00;98286.19;5022866;28;20538;-80
2023/10/17 04:43:54;;;;;;;10.30;2.20;;;3.20;99.90;;;4.05;100.00;98287.56;5023982;28;20520;-80
2023/10/17 04:46:26;;;;;;;6.60;2.30;;;3.20;99.90;;;4.01;100.00;98288.78;5023356;28;20459;-80
2023/10/17 04:49:06;;;;;;;9.30;2.53;;;3.20;99.90;;;4.02;100.00;98283.47;5027431;28;20483;-80
2023/10/17 04:51:42;;;;;;;7.63;2.40;;;3.20;99.90;;;3.93;100.00;98279.13;5025488;28;20516;-80
2023/10/17 04:54:22;;;;;;;2.90;2.10;;;3.30;99.90;;;3.99;100.00;98273.38;5021471;28;20513;-79
2023/10/17 04:56:59;;;;;;;5.60;2.40;;;3.20;99.90;;;3.98;100.00;98270.97;5017850;28;20517;-79
2023/10/17 04:59:41;;;;;;;2.30;1.70;;;3.30;99.90;;;4.03;100.00;98266.97;5018707;28;20585;-80
2023/10/17 05:02:36;;;;;;;3.97;1.90;;;3.20;99.90;;;4.10;100.00;98258.66;5017168;28;20469;-79
2023/10/17 05:08:17;;;;;;;6.27;2.53;;;3.20;99.90;;;4.13;100.00;98233.31;5017251;28;20477;-79
2023/10/17 06:17:47;;;;;;;5.27;2.93;;;3.40;99.90;;;4.27;100.00;98240.59;5017976;28;20970;-79
2023/10/17 06:20:43;;;;;;;3.40;2.53;;;3.50;99.90;;;4.27;100.00;98238.03;5017767;28;20494;-78
2023/10/17 06:24:06;;;;;;;8.37;4.10;;;3.40;99.90;;;4.28;100.00;98234.47;5017730;28;20470;-79
2023/10/17 06:32:15;;;;;;;4.43;3.40;;;3.50;99.90;;;4.37;100.00;98238.78;5020059;28;20500;-79
2023/10/17 06:34:45;;;;;;;5.23;3.37;;;3.50;99.90;;;4.34;100.00;98244.25;5016698;28;20534;-78
2023/10/17 06:37:20;;;;;;;13.93;3.97;;;3.50;99.90;;;4.37;100.00;98250.94;5018853;28;20858;-78
2023/10/17 06:39:49;;;;;;;3.83;2.60;;;3.50;99.90;;;4.38;100.00;98244.78;5019674;28;20950;-78
2023/10/17 06:42:29;;;;;;;7.97;3.70;;;3.60;99.90;;;4.40;100.00;98246.28;5018197;28;21007;-79
2023/10/17 06:45:07;;;;;;;5.80;3.40;;;3.60;99.90;;;4.42;100.00;98254.72;5017778;28;20503;-79
2023/10/17 06:47:42;;;;;;;7.20;3.63;;;3.60;99.90;;;4.46;100.00;98255.25;5015577;28;20473;-79
2023/10/17 06:50:17;;;;;;;7.63;3.60;;;3.60;99.90;;;4.46;100.00;98258.66;5017930;28;20501;-79
2023/10/17 06:53:02;;;;;;;5.53;3.50;;;3.70;99.90;;;4.45;100.00;98249.25;5017232;28;20485;-83
2023/10/17 06:55:38;;;;;;;6.10;3.30;;;3.60;99.90;;;4.49;100.00;98250.59;5017371;28;20523;-79
2023/10/17 06:58:10;;;;;;;3.50;3.03;;;3.70;99.90;;;4.55;100.00;98260.38;5017140;28;20492;-79
2023/10/17 07:00:49;;;;;;;6.90;3.13;;;3.70;99.90;;;4.61;100.00;98258.19;5017658;28;21022;-79
2023/10/17 07:03:26;;;;;;;6.60;3.90;;;3.80;99.90;;;4.61;100.00;98246.06;5017614;28;20480;-79
2023/10/17 07:06:10;;;;;;;4.37;3.17;;;3.90;99.90;;;4.64;100.00;98248.34;5018308;28;20484;-79
2023/10/17 07:08:46;;;;;;;6.33;3.90;;;3.80;99.90;;;4.69;100.00;98250.50;5018925;28;20459;-79
2023/10/17 07:11:26;;;;;;;5.20;2.60;;;3.90;99.90;;;4.75;100.00;98244.75;5016128;28;20518;-79
2023/10/17 07:14:23;;;;;;;9.73;3.80;;;3.90;99.90;;;4.80;100.00;98250.28;5015136;28;20483;-79
2023/10/17 07:17:00;;;;;;;13.47;3.80;;;4.00;99.90;;;4.85;100.00;98248.09;5017322;28;20461;-79
2023/10/17 07:19:57;;;;;;;4.80;3.23;;;4.00;99.90;;;4.90;100.00;98249.28;5018283;28;20879;-79
2023/10/17 07:22:35;;;;;;;6.57;3.87;;;4.00;99.90;;;4.95;100.00;98251.44;5017893;28;20501;-80
2023/10/17 07:25:16;;;;;;;4.70;3.50;;;4.20;99.90;;;4.93;100.00;98235.19;5019307;28;20467;-78
2023/10/17 07:27:49;;;;;;;5.53;3.70;;;4.20;99.90;;;4.96;100.00;98229.75;5018679;28;21096;-79
2023/10/17 07:30:34;;;;;;;5.20;3.03;;;4.20;99.90;;;5.03;100.00;98241.94;5016214;28;20633;-79
2023/10/17 07:33:07;;;;;;;4.60;3.50;;;4.20;99.90;;;5.08;100.00;98231.16;5017009;28;20469;-79
2023/10/17 07:35:38;;;;;;;10.90;3.70;;;4.30;99.90;;;5.14;100.00;98240.91;5017334;28;20489;-79
2023/10/17 07:38:07;;;;;;;5.30;3.60;;;4.40;99.90;;;5.21;100.00;98246.31;5017251;28;21004;-79
2023/10/17 07:43:21;;;;;;;4.57;3.33;;;4.50;99.90;;;5.31;100.00;98244.50;5018424;28;20463;-79
2023/10/17 07:46:05;;;;;;;3.33;2.47;;;4.60;99.90;;;5.36;100.00;98250.84;5017383;28;20465;-79
2023/10/17 07:48:36;;;;;;;4.23;2.57;;;4.60;99.90;;;5.44;100.00;98250.13;5017027;28;20902;-79
2023/10/17 07:51:07;;;;;;;6.93;2.73;;;4.70;99.90;;;5.48;100.00;98247.03;5017920;28;20962;-78
2023/10/17 07:53:45;;;;;;;6.43;3.90;;;4.80;99.90;;;5.54;100.00;98254.25;5016627;28;20462;-79
2023/10/17 07:56:21;;;;;;;4.00;3.23;;;4.80;99.90;;;5.59;100.00;98256.38;5017296;28;20465;-78
2023/10/17 07:59:04;;;;;;;7.33;2.67;;;4.80;99.90;;;5.67;100.00;98253.03;5016001;28;20471;-77
2023/10/17 08:01:42;;;;;;;3.00;2.13;;;4.90;99.90;;;5.70;100.00;98243.16;5015765;28;20486;-79
2023/10/17 08:04:17;;;;;;;6.00;3.40;;;5.00;99.90;;;5.76;100.00;98247.75;5015615;28;20469;-79
2023/10/17 08:06:50;;;;;;;5.63;3.43;;;5.00;99.90;;;5.83;100.00;98258.34;5017080;28;20512;-79
2023/10/17 08:09:24;;;;;;;4.90;2.63;;;5.10;99.90;;;5.84;100.00;98249.59;5017125;28;20459;-79
2023/10/17 08:11:59;;;;;;;4.10;2.47;;;5.10;99.90;;;5.85;100.00;98253.81;5020263;28;20466;-79
2023/10/17 08:14:34;;;;;;;7.67;2.77;;;5.30;99.90;;;5.84;100.00;98254.78;5022570;28;20493;-78
2023/10/17 08:17:05;;;;;;;9.10;3.07;;;5.20;99.90;;;5.89;100.00;98257.78;5021511;28;20462;-79
2023/10/17 08:20:00;;;;;;;3.77;2.40;;;5.20;99.90;;;5.91;100.00;98256.66;5023464;28;20465;-79
2023/10/17 08:22:26;;;;;;;5.20;2.83;;;5.20;99.90;;;5.97;100.00;98261.22;5023509;28;20514;-79
2023/10/17 08:24:58;;;;;;;6.40;2.90;;;5.30;99.90;;;6.00;100.00;98254.94;5014148;28;20477;-79
2023/10/17 08:30:23;;;;;;;2.83;2.40;;;5.40;99.90;;;6.10;100.00;98250.44;5013481;28;20474;-78
2023/10/17 08:33:15;;;;;;;3.20;2.70;;;5.50;99.90;;;6.15;100.00;98253.38;5013553;28;20943;-78
2023/10/17 08:35:51;;;;;;;3.90;2.40;;;5.50;99.90;;;6.17;100.00;98255.84;5016899;28;20574;-79
2023/10/17 08:38:20;;;;;;;3.40;2.30;;;5.50;99.90;;;6.18;100.00;98249.69;5014967;28;20497;-79
2023/10/17 08:40:54;;;;;;;3.53;2.17;;;5.50;99.90;;;6.21;100.00;98257.16;5014903;28;20872;-79
2023/10/17 08:43:31;;;;;;;4.37;2.20;;;5.60;99.90;;;6.28;100.00;98271.16;5015796;28;20497;-79
2023/10/17 08:46:06;;;;;;;3.17;2.27;;;5.60;99.90;;;6.35;100.00;98261.78;5015167;28;20833;-77
2023/10/17 08:48:39;;;;;;;12.03;4.20;;;5.70;99.90;;;6.38;100.00;98253.66;5014293;28;20466;-79
2023/10/17 08:51:09;;;;;;;2.43;2.23;;;5.70;99.90;;;6.42;100.00;98250.59;5015168;28;20461;-76
2023/10/17 08:53:57;;;;;;;4.80;3.00;;;5.70;99.90;;;6.47;100.00;98250.94;5017015;28;20454;-76
2023/10/17 08:56:36;;;;;;;4.13;2.53;;;5.80;99.90;;;6.51;100.00;98259.25;5015425;28;20465;-77
2023/10/17 08:59:11;;;;;;;8.07;2.90;;;5.80;99.90;;;6.54;100.00;98257.16;5017417;28;20464;-79
2023/10/17 09:02:01;;;;;;;8.67;2.40;;;5.90;99.90;;;6.57;100.00;98243.84;5016241;28;20562;-78
2023/10/17 09:04:33;;;;;;;8.70;2.40;;;5.90;99.90;;;6.62;100.00;98245.16;5015196;28;20455;-78
2023/10/17 09:07:08;;;;;;;2.93;2.00;;;6.00;99.90;;;6.64;100.00;98243.22;5015150;28;20490;-78
2023/10/17 09:09:42;;;;;;;5.57;2.43;;;6.00;99.90;;;6.64;100.00;98244.03;5016044;28;20449;-78
2023/10/17 09:12:21;;;;;;;2.90;2.17;;;6.10;99.90;;;6.68;100.00;98249.72;5015206;28;20553;-79
2023/10/17 09:14:52;;;;;;;5.37;2.57;;;6.10;99.90;;;6.69;100.00;98252.19;5017656;28;20462;-79
2023/10/17 09:17:30;;;;;;;4.53;2.67;;;6.10;99.90;;;6.73;100.00;98257.88;5022437;28;20482;-79
2023/10/17 09:20:11;;;;;;;3.77;2.33;;;6.10;99.90;;;6.77;100.00;98254.00;5023951;28;20547;-78
2023/10/17 09:22:44;;;;;;;5.60;3.13;;;6.10;99.90;;;6.80;100.00;98259.69;5026497;28;20492;-79
2023/10/17 09:25:22;;;;;;;4.40;2.40;;;6.20;99.90;;;6.86;100.00;98250.44;5024919;28;20501;-78
2023/10/17 09:27:56;;;;;;;4.60;2.30;;;6.20;99.90;;;6.92;100.00;98242.00;5024256;28;20557;-78
2023/10/17 09:30:26;;;;;;;7.10;2.40;;;6.20;99.90;;;6.98;100.00;98251.75;5026244;28;21159;-76
2023/10/17 09:32:58;;;;;;;3.40;2.40;;;6.30;99.90;;;7.01;100.00;98241.84;5024201;28;20473;-76
2023/10/17 09:35:30;;;;;;;6.57;2.60;;;6.30;99.90;;;7.04;100.00;98240.72;5022811;28;20799;-76
2023/10/17 09:38:05;;;;;;;5.90;2.53;;;6.40;99.90;;;7.06;100.00;98243.97;5024295;28;20484;-75
2023/10/17 09:40:38;;;;;;;4.70;2.37;;;6.40;99.90;;;7.07;100.00;98253.41;5024592;28;20465;-76
2023/10/17 09:43:18;;;;;;;4.00;2.43;;;6.40;99.90;;;7.14;100.00;98251.81;5022394;28;20494;-78
2023/10/17 09:45:52;;;;;;;6.83;2.60;;;6.40;99.90;;;7.20;100.00;98247.72;5024704;28;20476;-76
2023/10/17 09:48:34;;;;;;;4.07;2.30;;;6.50;99.90;;;7.23;100.00;98245.63;5025322;28;20972;-75
2023/10/17 09:51:06;;;;;;;3.87;2.40;;;6.60;99.90;;;7.28;100.00;98251.16;5024142;28;20457;-76
2023/10/17 09:53:40;;;;;;;2.73;2.20;;;6.60;99.90;;;7.38;100.00;98245.81;5025112;28;20484;-76
2023/10/17 09:56:16;;;;;;;3.57;2.23;;;6.70;99.90;;;7.45;100.00;98234.59;5021102;28;20462;-75
2023/10/17 09:58:54;;;;;;;14.10;2.70;;;6.80;99.90;;;7.49;100.00;98224.69;5020157;28;20459;-76
2023/10/17 10:01:27;;;;;;;5.57;2.97;;;6.80;99.90;;;7.52;100.00;98230.38;5020669;28;20466;-75
2023/10/17 10:04:01;;;;;;;5.13;2.70;;;7.00;99.90;;;7.57;100.00;98232.47;5018005;28;20489;-76
2023/10/17 10:06:36;;;;;;;4.23;2.20;;;7.10;99.90;;;7.63;100.00;98231.00;5018478;28;20489;-75
2023/10/17 10:09:26;;;;;;;7.53;2.90;;;7.00;99.90;;;7.65;100.00;98229.88;5020384;28;20465;-75
2023/10/17 10:12:01;;;;;;;2.90;2.10;;;7.10;99.90;;;7.70;100.00;98226.78;5019329;28;20467;-75
2023/10/17 10:14:43;;;;;;;9.17;2.87;;;7.20;99.90;;;7.76;100.00;98228.72;5018566;28;20458;-75
2023/10/17 10:17:17;;;;;;;9.90;3.07;;;7.20;99.90;;;7.80;100.00;98236.03;5018843;28;20463;-75
2023/10/17 10:20:04;;;;;;;6.23;2.53;;;7.20;99.90;;;7.83;100.00;98224.47;5020511;28;20553;-76
2023/10/17 10:22:56;;;;;;;5.30;2.63;;;7.20;99.90;;;7.91;100.00;98224.47;5018211;28;20494;-75
2023/10/17 10:25:26;;;;;;;3.53;2.60;;;7.30;99.90;;;7.96;100.00;98228.19;5017901;28;20474;-75
2023/10/17 10:28:29;;;;;;;2.73;2.33;;;7.40;99.90;;;8.06;100.00;98214.97;5020169;28;20474;-76
2023/10/17 10:30:58;;;;;;;6.20;3.30;;;7.40;99.90;;;8.09;100.00;98214.66;5018933;28;20475;-76
2023/10/17 10:33:31;;;;;;;3.77;2.13;;;7.50;99.90;;;8.07;100.00;98208.81;5020751;28;20468;-78
2023/10/17 10:36:04;;;;;;;5.07;2.97;;;7.50;99.90;;;8.04;100.00;98201.31;5025814;28;20470;-78
2023/10/17 10:38:36;;;;;;;4.60;2.57;;;7.40;99.90;;;8.05;100.00;98198.53;5024761;28;20581;-79
2023/10/17 10:41:11;;;;;;;3.33;2.57;;;7.40;99.90;;;8.10;100.00;98203.25;5024039;28;20465;-79
2023/10/17 10:43:41;;;;;;;9.77;3.20;;;7.50;99.90;;;8.09;100.00;98204.22;5020614;28;20486;-77
2023/10/17 10:46:11;;;;;;;7.27;2.63;;;7.50;99.90;;;8.11;100.00;98197.09;5024053;28;21051;-79
2023/10/17 10:48:47;;;;;;;3.80;2.50;;;7.50;99.90;;;8.16;100.00;98186.94;5022802;28;20458;-79
2023/10/17 10:51:18;;;;;;;8.73;3.10;;;7.60;99.90;;;8.21;100.00;98189.88;5018243;28;20474;-78
2023/10/17 10:53:54;;;;;;;8.07;2.70;;;7.60;99.90;;;8.25;100.00;98180.75;5018120;28;20966;-79
2023/10/17 10:56:25;;;;;;;4.03;2.30;;;7.60;99.90;;;8.30;100.00;98183.69;5019184;28;20467;-79
2023/10/17 10:58:56;;;;;;;6.80;2.50;;;7.60;99.90;;;8.31;100.00;98177.50;5015875;28;20840;-77
2023/10/17 11:01:27;;;;;;;7.50;3.20;;;7.60;99.90;;;8.35;100.00;98165.75;5015639;28;20631;-75
2023/10/17 11:03:59;;;;;;;3.27;2.80;;;7.70;99.90;;;8.39;100.00;98176.66;5016210;28;20537;-76
2023/10/17 11:06:29;;;;;;;7.40;3.10;;;7.80;99.90;;;8.47;100.00;98174.00;5016747;28;20973;-76
2023/10/17 11:09:01;;;;;;;6.20;3.17;;;7.80;99.90;;;8.49;100.00;98185.06;5019322;28;20525;-76
2023/10/17 11:11:32;;;;;;;4.37;3.00;;;7.90;99.90;;;8.53;100.00;98184.56;5015660;28;20470;-76
2023/10/17 11:14:03;;;;;;;5.70;2.77;;;8.00;99.90;;;8.65;100.00;98181.56;5016497;28;20533;-77
2023/10/17 11:16:36;;;;;;;5.87;3.00;;;8.00;99.90;;;8.70;100.00;98189.69;5018617;28;20459;-77
2023/10/17 11:19:19;;;;;;;4.10;2.70;;;8.00;99.90;;;8.73;100.00;98184.94;5015964;28;20462;-79
2023/10/17 11:21:58;;;;;;;3.10;2.53;;;8.10;99.90;;;8.81;100.00;98178.88;5017410;28;20474;-80
2023/10/17 11:24:30;;;;;;;6.27;3.20;;;8.20;99.90;;;8.88;100.00;98183.22;5014177;28;21561;-78
2023/10/17 11:27:03;;;;;;;4.77;3.10;;;8.30;99.90;;;8.93;100.00;98180.91;5020265;28;20472;-82
2023/10/17 11:29:35;;;;;;;5.60;2.80;;;8.30;99.90;;;8.95;100.00;98183.34;5017119;28;20479;-82
2023/10/17 11:32:05;;;;;;;6.00;3.50;;;8.30;99.90;;;8.94;100.00;98176.50;5019676;28;20547;-82
2023/10/17 11:34:47;;;;;;;6.00;3.20;;;8.30;99.90;;;8.99;100.00;98179.38;5017108;28;20516;-79
2023/10/17 11:37:21;;;;;;;2.80;2.33;;;8.40;99.90;;;9.03;100.00;98160.63;5017970;28;20999;-79
2023/10/17 11:39:52;;;;;;;5.03;2.73;;;8.50;99.90;;;9.09;100.00;98153.91;5015718;28;20495;-79
2023/10/17 11:42:33;;;;;;;6.60;3.30;;;8.50;99.90;;;9.14;100.00;98145.53;5015217;28;20563;-79
2023/10/17 11:45:19;;;;;;;6.10;3.10;;;8.50;99.90;;;9.21;100.00;98149.88;5016196;28;20528;-79
2023/10/17 11:47:55;;;;;;;6.73;2.80;;;8.60;99.90;;;9.28;100.00;98153.41;5016119;28;20463;-79
2023/10/17 11:50:35;;;;;;;5.57;2.80;;;8.70;99.90;;;9.35;100.00;98163.97;5015424;28;20982;-80
2023/10/17 11:53:12;;;;;;;4.67;2.67;;;8.70;99.90;;;9.36;100.00;98155.97;5014879;28;20477;-80
2023/10/17 11:55:46;;;;;;;3.97;2.80;;;8.80;99.90;;;9.38;100.00;98153.97;5015090;28;20512;-79
2023/10/17 11:58:24;;;;;;;5.30;3.10;;;8.90;99.90;;;9.42;100.00;98151.81;5016404;28;20458;-77
2023/10/17 12:00:55;;;;;;;6.17;3.10;;;8.90;99.90;;;9.45;100.00;98148.84;5017972;28;20477;-80
2023/10/17 12:03:27;;;;;;;5.33;3.13;;;9.00;99.90;;;9.48;100.00;98151.13;5014609;28;20849;-80
2023/10/17 12:06:00;;;;;;;9.52;3.40;;;9.00;99.90;;;9.51;100.00;98129.91;5015599;28;20932;-80
2023/10/17 12:08:31;;;;;;;8.33;3.23;;;8.90;99.90;;;9.57;100.00;98122.16;5018004;28;20253;-80
2023/10/17 12:11:06;;;;;;;5.03;2.73;;;9.00;99.90;;;9.64;100.00;98118.84;5017742;28;20558;-80
2023/10/17 12:13:40;;;;;;;4.57;2.80;;;9.10;99.90;;;9.65;100.00;98123.06;5016120;28;20477;-80
2023/10/17 12:16:13;;;;;;;4.60;3.17;;;9.20;99.90;;;9.69;100.00;98116.47;5018701;28;20469;-80
2023/10/17 12:18:47;;;;;;;9.83;2.57;;;9.20;99.90;;;9.74;100.00;98117.56;5018931;28;20462;-80
2023/10/17 12:21:17;;;;;;;5.57;3.07;;;9.30;99.90;;;9.76;100.00;98114.78;5019502;28;20842;-80
2023/10/17 12:23:47;;;;;;;5.00;3.30;;;9.30;99.90;;;9.79;100.00;98104.00;5018836;28;20502;-80
2023/10/17 12:26:26;;;;;;;3.90;2.63;;;9.40;99.90;;;9.81;100.00;98112.44;5018940;28;20462;-81